sensor_id;sensor_type;location;lat;lon;timestamp;pressure;altitude;pressure_sealevel;temperature;humidity
64827;BME280;51265;53.972;12.286;2023-02-11T00:00:52;101624.19;;;3.85;100.00
64827;BME280;51265;53.972;12.286;2023-02-11T00:03:18;101608.50;;;3.80;100.00
64827;BME280;51265;53.972;12.286;2023-02-11T00:05:44;101612.91;;;3.81;100.00
64827;BME280;51265;53.972;12.286;2023-02-11T00:08:10;101635.75;;;3.80;100.00
64827;BME280;51265;53.972;12.286;2023-02-11T00:10:41;101628.19;;;3.82;100.00
64827;BME280;51265;53.972;12.286;2023-02-11T00:13:11;101652.28;;;3.85;100.00
64827;BME280;51265;53.972;12.286;2023-02-11T00:15:37;101653.94;;;3.86;100.00
64827;BME280;51265;53.972;12.286;2023-02-11T00:18:03;101668.44;;;3.98;100.00
64827;BME280;51265;53.972;12.286;2023-02-11T00:20:29;101670.47;;;4.03;100.00
64827;BME280;51265;53.972;12.286;2023-02-11T00:22:56;101691.00;;;4.06;100.00
64827;BME280;51265;53.972;12.286;2023-02-11T00:25:22;101688.94;;;4.01;100.00
64827;BME280;51265;53.972;12.286;2023-02-11T00:27:48;101692.22;;;4.10;100.00
64827;BME280;51265;53.972;12.286;2023-02-11T00:30:14;101691.84;;;4.06;100.00
64827;BME280;51265;53.972;12.286;2023-02-11T00:32:41;101674.88;;;4.04;100.00
64827;BME280;51265;53.972;12.286;2023-02-11T00:35:07;101695.91;;;4.15;100.00
64827;BME280;51265;53.972;12.286;2023-02-11T00:37:33;101681.66;;;4.13;100.00
64827;BME280;51265;53.972;12.286;2023-02-11T00:40:03;101678.41;;;4.05;100.00
64827;BME280;51265;53.972;12.286;2023-02-11T00:42:32;101682.97;;;4.11;100.00
64827;BME280;51265;53.972;12.286;2023-02-11T00:45:01;101677.66;;;4.16;100.00
64827;BME280;51265;53.972;12.286;2023-02-11T00:47:27;101682.88;;;4.17;100.00
64827;BME280;51265;53.972;12.286;2023-02-11T00:49:53;101673.28;;;4.15;100.00
64827;BME280;51265;53.972;12.286;2023-02-11T00:52:20;101676.22;;;4.13;100.00
64827;BME280;51265;53.972;12.286;2023-02-11T00:54:46;101659.41;;;4.16;100.00
64827;BME280;51265;53.972;12.286;2023-02-11T00:57:12;101671.31;;;4.04;100.00
64827;BME280;51265;53.972;12.286;2023-02-11T00:59:39;101683.41;;;4.08;100.00
64827;BME280;51265;53.972;12.286;2023-02-11T01:02:05;101683.88;;;4.05;100.00
64827;BME280;51265;53.972;12.286;2023-02-11T01:04:31;101691.47;;;4.03;100.00
64827;BME280;51265;53.972;12.286;2023-02-11T01:06:57;101693.50;;;4.07;100.00
64827;BME280;51265;53.972;12.286;2023-02-11T01:09:24;101686.63;;;3.86;100.00
64827;BME280;51265;53.972;12.286;2023-02-11T01:11:51;101711.44;;;3.96;100.00
64827;BME280;51265;53.972;12.286;2023-02-11T01:14:17;101706.88;;;4.09;100.00
64827;BME280;51265;53.972;12.286;2023-02-11T01:16:43;101716.75;;;4.10;100.00
64827;BME280;51265;53.972;12.286;2023-02-11T01:19:09;101730.53;;;4.15;100.00
64827;BME280;51265;53.972;12.286;2023-02-11T01:21:36;101729.47;;;4.16;100.00
64827;BME280;51265;53.972;12.286;2023-02-11T01:24:02;101721.59;;;4.08;100.00
64827;BME280;51265;53.972;12.286;2023-02-11T01:26:28;101721.88;;;4.18;100.00
64827;BME280;51265;53.972;12.286;2023-02-11T01:28:56;101737.69;;;4.28;100.00
64827;BME280;51265;53.972;12.286;2023-02-11T01:31:27;101720.03;;;4.30;100.00
64827;BME280;51265;53.972;12.286;2023-02-11T01:33:53;101717.47;;;4.35;100.00
64827;BME280;51265;53.972;12.286;2023-02-11T01:36:21;101704.53;;;4.31;100.00
64827;BME280;51265;53.972;12.286;2023-02-11T01:38:47;101697.31;;;4.36;100.00
64827;BME280;51265;53.972;12.286;2023-02-11T01:41:15;101693.97;;;4.34;100.00
64827;BME280;51265;53.972;12.286;2023-02-11T01:43:47;101683.16;;;4.28;100.00
64827;BME280;51265;53.972;12.286;2023-02-11T01:49:04;101670.59;;;4.27;100.00
64827;BME280;51265;53.972;12.286;2023-02-11T01:51:36;101658.38;;;4.29;100.00
64827;BME280;51265;53.972;12.286;2023-02-11T01:54:05;101661.97;;;4.41;100.00
64827;BME280;51265;53.972;12.286;2023-02-11T01:56:54;101662.25;;;4.52;100.00
64827;BME280;51265;53.972;12.286;2023-02-11T02:00:17;101661.78;;;4.55;100.00
64827;BME280;51265;53.972;12.286;2023-02-11T02:02:54;101662.84;;;4.54;100.00
64827;BME280;51265;53.972;12.286;2023-02-11T02:05:30;101660.84;;;4.61;100.00
64827;BME280;51265;53.972;12.286;2023-02-11T02:08:10;101659.75;;;4.50;100.00
64827;BME280;51265;53.972;12.286;2023-02-11T02:10:42;101655.13;;;4.50;100.00
64827;BME280;51265;53.972;12.286;2023-02-11T02:13:09;101657.59;;;4.40;100.00
64827;BME280;51265;53.972;12.286;2023-02-11T02:15:37;101656.81;;;4.52;100.00
64827;BME280;51265;53.972;12.286;2023-02-11T02:38:18;101668.63;;;4.45;100.00
64827;BME280;51265;53.972;12.286;2023-02-11T02:40:58;101667.22;;;4.55;100.00
64827;BME280;51265;53.972;12.286;2023-02-11T02:43:27;101673.88;;;4.59;100.00
64827;BME280;51265;53.972;12.286;2023-02-11T02:45:54;101676.69;;;4.40;100.00
64827;BME280;51265;53.972;12.286;2023-02-11T02:48:31;101672.31;;;4.39;100.00
64827;BME280;51265;53.972;12.286;2023-02-11T02:51:12;101679.16;;;4.42;100.00
64827;BME280;51265;53.972;12.286;2023-02-11T02:56:34;101675.63;;;4.41;100.00
64827;BME280;51265;53.972;12.286;2023-02-11T03:04:33;101668.84;;;4.86;100.00
64827;BME280;51265;53.972;12.286;2023-02-11T03:07:30;101664.34;;;4.91;100.00
64827;BME280;51265;53.972;12.286;2023-02-11T03:10:08;101650.97;;;4.48;100.00
64827;BME280;51265;53.972;12.286;2023-02-11T03:12:37;101673.81;;;4.35;100.00
64827;BME280;51265;53.972;12.286;2023-02-11T03:15:05;101685.94;;;4.39;100.00
64827;BME280;51265;53.972;12.286;2023-02-11T03:17:33;101686.97;;;4.38;100.00
64827;BME280;51265;53.972;12.286;2023-02-11T03:20:02;101670.78;;;4.43;100.00
64827;BME280;51265;53.972;12.286;2023-02-11T03:22:34;101659.88;;;4.43;100.00
64827;BME280;51265;53.972;12.286;2023-02-11T03:25:03;101656.97;;;4.38;100.00
64827;BME280;51265;53.972;12.286;2023-02-11T03:27:51;101638.75;;;4.50;100.00
64827;BME280;51265;53.972;12.286;2023-02-11T03:30:26;101644.19;;;4.50;100.00
64827;BME280;51265;53.972;12.286;2023-02-11T03:33:01;101643.28;;;4.57;100.00
64827;BME280;51265;53.972;12.286;2023-02-11T03:36:01;101627.38;;;4.54;100.00
64827;BME280;51265;53.972;12.286;2023-02-11T03:38:32;101624.06;;;4.52;100.00
64827;BME280;51265;53.972;12.286;2023-02-11T03:41:01;101622.88;;;4.47;100.00
64827;BME280;51265;53.972;12.286;2023-02-11T03:43:36;101597.81;;;4.50;100.00
64827;BME280;51265;53.972;12.286;2023-02-11T03:46:04;101613.16;;;4.52;100.00
64827;BME280;51265;53.972;12.286;2023-02-11T03:48:38;101604.72;;;4.53;100.00
64827;BME280;51265;53.972;12.286;2023-02-11T03:51:07;101611.75;;;4.61;100.00
64827;BME280;51265;53.972;12.286;2023-02-11T03:53:35;101604.13;;;4.63;100.00
64827;BME280;51265;53.972;12.286;2023-02-11T03:56:05;101606.50;;;4.59;100.00
64827;BME280;51265;53.972;12.286;2023-02-11T03:58:32;101616.25;;;4.67;100.00
64827;BME280;51265;53.972;12.286;2023-02-11T04:00:58;101631.88;;;4.60;100.00
64827;BME280;51265;53.972;12.286;2023-02-11T04:03:27;101632.38;;;4.57;100.00
64827;BME280;51265;53.972;12.286;2023-02-11T04:05:54;101624.31;;;4.62;100.00
64827;BME280;51265;53.972;12.286;2023-02-11T04:08:20;101623.47;;;4.61;100.00
64827;BME280;51265;53.972;12.286;2023-02-11T04:10:46;101631.78;;;4.66;100.00
64827;BME280;51265;53.972;12.286;2023-02-11T04:13:12;101631.69;;;4.73;100.00
64827;BME280;51265;53.972;12.286;2023-02-11T04:15:40;101635.94;;;4.69;100.00
64827;BME280;51265;53.972;12.286;2023-02-11T04:18:06;101642.25;;;4.69;100.00
64827;BME280;51265;53.972;12.286;2023-02-11T04:20:32;101627.78;;;4.69;100.00
64827;BME280;51265;53.972;12.286;2023-02-11T04:22:58;101654.44;;;4.67;100.00
64827;BME280;51265;53.972;12.286;2023-02-11T04:25:24;101628.34;;;4.71;100.00
64827;BME280;51265;53.972;12.286;2023-02-11T04:27:51;101630.50;;;4.69;100.00
64827;BME280;51265;53.972;12.286;2023-02-11T04:30:17;101631.44;;;4.74;100.00
64827;BME280;51265;53.972;12.286;2023-02-11T04:32:43;101642.13;;;4.64;100.00
64827;BME280;51265;53.972;12.286;2023-02-11T04:35:09;101640.00;;;4.78;100.00
64827;BME280;51265;53.972;12.286;2023-02-11T04:37:35;101638.34;;;4.77;100.00
64827;BME280;51265;53.972;12.286;2023-02-11T04:40:02;101643.78;;;4.77;100.00
64827;BME280;51265;53.972;12.286;2023-02-11T04:42:28;101640.59;;;4.68;100.00
64827;BME280;51265;53.972;12.286;2023-02-11T04:44:55;101628.59;;;4.69;100.00
64827;BME280;51265;53.972;12.286;2023-02-11T04:47:21;101636.91;;;4.86;100.00
64827;BME280;51265;53.972;12.286;2023-02-11T04:49:47;101624.81;;;4.82;100.00
64827;BME280;51265;53.972;12.286;2023-02-11T04:52:27;101626.00;;;4.86;100.00
64827;BME280;51265;53.972;12.286;2023-02-11T04:54:54;101613.66;;;4.84;100.00
64827;BME280;51265;53.972;12.286;2023-02-11T04:57:20;101623.16;;;4.81;100.00
64827;BME280;51265;53.972;12.286;2023-02-11T04:59:46;101619.94;;;4.84;100.00
64827;BME280;51265;53.972;12.286;2023-02-11T05:02:13;101619.59;;;4.92;100.00
64827;BME280;51265;53.972;12.286;2023-02-11T05:04:39;101601.19;;;4.88;100.00
64827;BME280;51265;53.972;12.286;2023-02-11T05:07:05;101604.63;;;4.71;100.00
64827;BME280;51265;53.972;12.286;2023-02-11T05:09:31;101608.53;;;4.75;100.00
64827;BME280;51265;53.972;12.286;2023-02-11T05:11:58;101596.31;;;4.78;100.00
64827;BME280;51265;53.972;12.286;2023-02-11T05:14:24;101596.31;;;4.78;100.00
64827;BME280;51265;53.972;12.286;2023-02-11T05:16:50;101598.72;;;4.86;100.00
64827;BME280;51265;53.972;12.286;2023-02-11T05:19:16;101586.25;;;4.90;100.00
64827;BME280;51265;53.972;12.286;2023-02-11T05:21:42;101587.66;;;4.93;100.00
64827;BME280;51265;53.972;12.286;2023-02-11T05:24:09;101582.91;;;5.00;100.00
64827;BME280;51265;53.972;12.286;2023-02-11T05:26:36;101581.25;;;4.99;100.00
64827;BME280;51265;53.972;12.286;2023-02-11T05:29:02;101584.09;;;5.04;100.00
64827;BME280;51265;53.972;12.286;2023-02-11T05:31:28;101572.91;;;5.06;100.00
64827;BME280;51265;53.972;12.286;2023-02-11T05:33:54;101572.81;;;5.00;100.00
64827;BME280;51265;53.972;12.286;2023-02-11T05:36:20;101565.69;;;4.99;100.00
64827;BME280;51265;53.972;12.286;2023-02-11T05:38:47;101572.22;;;5.10;100.00
64827;BME280;51265;53.972;12.286;2023-02-11T05:41:13;101575.28;;;5.14;100.00
64827;BME280;51265;53.972;12.286;2023-02-11T05:43:39;101570.44;;;5.16;100.00
64827;BME280;51265;53.972;12.286;2023-02-11T05:46:06;101543.59;;;5.13;100.00
64827;BME280;51265;53.972;12.286;2023-02-11T05:48:32;101549.88;;;5.25;100.00
64827;BME280;51265;53.972;12.286;2023-02-11T05:50:58;101542.28;;;5.27;100.00
64827;BME280;51265;53.972;12.286;2023-02-11T05:53:24;101534.66;;;5.29;100.00
64827;BME280;51265;53.972;12.286;2023-02-11T05:55:51;101525.38;;;5.30;100.00
64827;BME280;51265;53.972;12.286;2023-02-11T05:58:17;101540.50;;;5.21;100.00
64827;BME280;51265;53.972;12.286;2023-02-11T06:00:43;101536.56;;;5.29;100.00
64827;BME280;51265;53.972;12.286;2023-02-11T06:03:09;101540.38;;;5.28;100.00
64827;BME280;51265;53.972;12.286;2023-02-11T06:05:36;101533.47;;;5.37;100.00
64827;BME280;51265;53.972;12.286;2023-02-11T06:08:02;101533.19;;;5.38;100.00
64827;BME280;51265;53.972;12.286;2023-02-11T06:10:28;101536.63;;;5.45;100.00
64827;BME280;51265;53.972;12.286;2023-02-11T06:12:55;101546.38;;;5.41;100.00
64827;BME280;51265;53.972;12.286;2023-02-11T06:15:21;101551.13;;;5.46;100.00
64827;BME280;51265;53.972;12.286;2023-02-11T06:17:47;101549.22;;;5.46;100.00
64827;BME280;51265;53.972;12.286;2023-02-11T06:20:13;101565.13;;;5.49;100.00
64827;BME280;51265;53.972;12.286;2023-02-11T06:22:40;101576.88;;;5.50;100.00
64827;BME280;51265;53.972;12.286;2023-02-11T06:25:06;101571.91;;;5.47;100.00
64827;BME280;51265;53.972;12.286;2023-02-11T06:27:32;101574.41;;;5.48;100.00
64827;BME280;51265;53.972;12.286;2023-02-11T06:29:58;101571.06;;;5.46;100.00
64827;BME280;51265;53.972;12.286;2023-02-11T06:32:27;101570.88;;;5.36;100.00
64827;BME280;51265;53.972;12.286;2023-02-11T06:34:53;101571.16;;;5.52;100.00
64827;BME280;51265;53.972;12.286;2023-02-11T06:37:19;101580.06;;;5.59;100.00
64827;BME280;51265;53.972;12.286;2023-02-11T06:39:45;101574.88;;;5.45;100.00
64827;BME280;51265;53.972;12.286;2023-02-11T06:42:12;101570.59;;;5.49;100.00
64827;BME280;51265;53.972;12.286;2023-02-11T06:44:38;101586.25;;;5.54;100.00
64827;BME280;51265;53.972;12.286;2023-02-11T06:47:04;101594.47;;;5.42;100.00
64827;BME280;51265;53.972;12.286;2023-02-11T06:49:30;101597.31;;;5.47;100.00
64827;BME280;51265;53.972;12.286;2023-02-11T06:51:56;101601.72;;;5.48;100.00
64827;BME280;51265;53.972;12.286;2023-02-11T06:54:23;101594.00;;;5.57;100.00
64827;BME280;51265;53.972;12.286;2023-02-11T06:56:49;101609.56;;;5.57;100.00
64827;BME280;51265;53.972;12.286;2023-02-11T06:59:18;101595.75;;;5.52;100.00
64827;BME280;51265;53.972;12.286;2023-02-11T07:01:48;101619.97;;;5.60;100.00
64827;BME280;51265;53.972;12.286;2023-02-11T07:04:14;101610.00;;;5.65;100.00
64827;BME280;51265;53.972;12.286;2023-02-11T07:06:40;101613.56;;;5.66;100.00
64827;BME280;51265;53.972;12.286;2023-02-11T07:09:07;101623.78;;;5.59;100.00
64827;BME280;51265;53.972;12.286;2023-02-11T07:11:33;101619.38;;;5.69;100.00
64827;BME280;51265;53.972;12.286;2023-02-11T07:14:04;101622.28;;;5.91;100.00
64827;BME280;51265;53.972;12.286;2023-02-11T07:16:31;101613.25;;;5.91;100.00
64827;BME280;51265;53.972;12.286;2023-02-11T07:18:57;101620.31;;;5.75;100.00
64827;BME280;51265;53.972;12.286;2023-02-11T07:21:24;101596.09;;;5.67;100.00
64827;BME280;51265;53.972;12.286;2023-02-11T07:23:51;101594.44;;;5.66;100.00
64827;BME280;51265;53.972;12.286;2023-02-11T07:26:19;101603.72;;;5.65;100.00
64827;BME280;51265;53.972;12.286;2023-02-11T07:28:49;101593.25;;;5.62;100.00
64827;BME280;51265;53.972;12.286;2023-02-11T07:31:18;101608.56;;;5.63;100.00
64827;BME280;51265;53.972;12.286;2023-02-11T07:33:44;101617.03;;;5.61;100.00
64827;BME280;51265;53.972;12.286;2023-02-11T07:36:13;101629.34;;;5.75;100.00
64827;BME280;51265;53.972;12.286;2023-02-11T07:38:40;101627.88;;;5.96;100.00
64827;BME280;51265;53.972;12.286;2023-02-11T07:41:09;101637.53;;;5.75;100.00
64827;BME280;51265;53.972;12.286;2023-02-11T07:43:36;101643.72;;;5.71;100.00
64827;BME280;51265;53.972;12.286;2023-02-11T07:46:04;101651.47;;;5.74;100.00
64827;BME280;51265;53.972;12.286;2023-02-11T07:48:30;101645.91;;;5.69;100.00
64827;BME280;51265;53.972;12.286;2023-02-11T07:51:08;101649.56;;;5.74;100.00
64827;BME280;51265;53.972;12.286;2023-02-11T07:53:35;101642.78;;;5.77;100.00
64827;BME280;51265;53.972;12.286;2023-02-11T07:56:04;101646.69;;;5.81;100.00
64827;BME280;51265;53.972;12.286;2023-02-11T07:58:31;101661.41;;;5.92;100.00
64827;BME280;51265;53.972;12.286;2023-02-11T08:01:06;101668.66;;;5.86;100.00
64827;BME280;51265;53.972;12.286;2023-02-11T08:03:33;101657.13;;;5.96;100.00
64827;BME280;51265;53.972;12.286;2023-02-11T08:06:05;101653.09;;;5.98;100.00
64827;BME280;51265;53.972;12.286;2023-02-11T08:08:31;101641.75;;;6.07;100.00
64827;BME280;51265;53.972;12.286;2023-02-11T08:10:58;101648.41;;;6.11;100.00
64827;BME280;51265;53.972;12.286;2023-02-11T08:13:30;101654.34;;;6.08;100.00
64827;BME280;51265;53.972;12.286;2023-02-11T08:15:56;101645.16;;;6.14;100.00
64827;BME280;51265;53.972;12.286;2023-02-11T08:18:22;101677.50;;;6.17;100.00
64827;BME280;51265;53.972;12.286;2023-02-11T08:20:48;101647.63;;;6.27;100.00
64827;BME280;51265;53.972;12.286;2023-02-11T08:23:15;101637.16;;;6.24;100.00
64827;BME280;51265;53.972;12.286;2023-02-11T08:25:41;101652.25;;;6.27;100.00
64827;BME280;51265;53.972;12.286;2023-02-11T08:28:07;101637.00;;;6.31;100.00
64827;BME280;51265;53.972;12.286;2023-02-11T08:30:34;101647.13;;;6.30;100.00
64827;BME280;51265;53.972;12.286;2023-02-11T08:33:01;101647.13;;;6.30;100.00
64827;BME280;51265;53.972;12.286;2023-02-11T08:35:27;101648.28;;;6.34;100.00
64827;BME280;51265;53.972;12.286;2023-02-11T08:37:53;101656.56;;;6.39;100.00
64827;BME280;51265;53.972;12.286;2023-02-11T08:40:19;101661.81;;;6.41;100.00
64827;BME280;51265;53.972;12.286;2023-02-11T08:42:46;101666.47;;;6.40;100.00
64827;BME280;51265;53.972;12.286;2023-02-11T08:45:12;101672.16;;;6.39;100.00
64827;BME280;51265;53.972;12.286;2023-02-11T08:47:38;101662.50;;;6.48;100.00
64827;BME280;51265;53.972;12.286;2023-02-11T08:50:04;101684.94;;;6.33;100.00
64827;BME280;51265;53.972;12.286;2023-02-11T08:52:31;101660.47;;;6.43;100.00
64827;BME280;51265;53.972;12.286;2023-02-11T08:54:57;101669.88;;;6.47;100.00
64827;BME280;51265;53.972;12.286;2023-02-11T08:57:23;101675.59;;;6.46;100.00
64827;BME280;51265;53.972;12.286;2023-02-11T08:59:49;101666.16;;;6.54;100.00
64827;BME280;51265;53.972;12.286;2023-02-11T09:02:16;101655.13;;;6.48;100.00
64827;BME280;51265;53.972;12.286;2023-02-11T09:04:42;101665.00;;;6.49;100.00
64827;BME280;51265;53.972;12.286;2023-02-11T09:07:08;101667.47;;;6.51;100.00
64827;BME280;51265;53.972;12.286;2023-02-11T09:09:34;101667.13;;;6.47;100.00
64827;BME280;51265;53.972;12.286;2023-02-11T09:12:00;101655.75;;;6.39;100.00
64827;BME280;51265;53.972;12.286;2023-02-11T09:14:26;101695.41;;;6.36;100.00
64827;BME280;51265;53.972;12.286;2023-02-11T09:16:53;101701.09;;;6.35;100.00
64827;BME280;51265;53.972;12.286;2023-02-11T09:19:19;101713.00;;;6.40;100.00
64827;BME280;51265;53.972;12.286;2023-02-11T09:21:46;101689.63;;;6.49;100.00
64827;BME280;51265;53.972;12.286;2023-02-11T09:24:12;101689.63;;;6.49;100.00
64827;BME280;51265;53.972;12.286;2023-02-11T09:26:40;101714.03;;;6.39;100.00
64827;BME280;51265;53.972;12.286;2023-02-11T09:29:08;101691.56;;;6.37;100.00
64827;BME280;51265;53.972;12.286;2023-02-11T09:31:34;101706.03;;;6.49;100.00
64827;BME280;51265;53.972;12.286;2023-02-11T09:34:03;101685.22;;;6.48;100.00
64827;BME280;51265;53.972;12.286;2023-02-11T09:36:32;101678.28;;;6.58;100.00
64827;BME280;51265;53.972;12.286;2023-02-11T09:39:00;101684.44;;;6.65;100.00
64827;BME280;51265;53.972;12.286;2023-02-11T09:44:24;101658.94;;;6.98;100.00
64827;BME280;51265;53.972;12.286;2023-02-11T09:46:55;101662.13;;;7.07;100.00
64827;BME280;51265;53.972;12.286;2023-02-11T09:49:48;101645.69;;;7.07;100.00
64827;BME280;51265;53.972;12.286;2023-02-11T09:55:40;101636.69;;;7.28;100.00
64827;BME280;51265;53.972;12.286;2023-02-11T09:58:44;101642.25;;;7.33;100.00
64827;BME280;51265;53.972;12.286;2023-02-11T10:04:23;101629.81;;;7.47;100.00
64827;BME280;51265;53.972;12.286;2023-02-11T10:12:57;101657.66;;;7.39;100.00
64827;BME280;51265;53.972;12.286;2023-02-11T10:15:45;101657.94;;;7.21;100.00
64827;BME280;51265;53.972;12.286;2023-02-11T10:23:46;101661.44;;;7.16;100.00
64827;BME280;51265;53.972;12.286;2023-02-11T10:26:15;101661.91;;;7.30;100.00
64827;BME280;51265;53.972;12.286;2023-02-11T10:28:49;101690.69;;;7.11;100.00
64827;BME280;51265;53.972;12.286;2023-02-11T10:31:46;101702.94;;;7.25;100.00
64827;BME280;51265;53.972;12.286;2023-02-11T10:34:15;101709.25;;;7.09;100.00
64827;BME280;51265;53.972;12.286;2023-02-11T10:37:01;101712.41;;;7.01;100.00
64827;BME280;51265;53.972;12.286;2023-02-11T10:39:27;101704.03;;;6.90;100.00
64827;BME280;51265;53.972;12.286;2023-02-11T10:42:04;101714.91;;;7.02;100.00
64827;BME280;51265;53.972;12.286;2023-02-11T10:44:37;101715.22;;;7.06;100.00
64827;BME280;51265;53.972;12.286;2023-02-11T10:47:12;101702.47;;;7.28;100.00
64827;BME280;51265;53.972;12.286;2023-02-11T10:49:47;101701.50;;;7.39;100.00
64827;BME280;51265;53.972;12.286;2023-02-11T10:55:13;101705.56;;;7.54;100.00
64827;BME280;51265;53.972;12.286;2023-02-11T10:57:53;101701.09;;;7.47;100.00
64827;BME280;51265;53.972;12.286;2023-02-11T11:02:59;101712.88;;;7.48;100.00
64827;BME280;51265;53.972;12.286;2023-02-11T11:05:33;101714.38;;;7.56;100.00
64827;BME280;51265;53.972;12.286;2023-02-11T11:08:05;101703.63;;;7.32;100.00
64827;BME280;51265;53.972;12.286;2023-02-11T11:13:38;101702.34;;;7.23;100.00
64827;BME280;51265;53.972;12.286;2023-02-11T11:18:44;101715.19;;;7.56;100.00
64827;BME280;51265;53.972;12.286;2023-02-11T11:24:16;101715.75;;;7.36;100.00
64827;BME280;51265;53.972;12.286;2023-02-11T11:26:46;101700.94;;;7.37;100.00
64827;BME280;51265;53.972;12.286;2023-02-11T11:29:35;101703.44;;;7.39;100.00
64827;BME280;51265;53.972;12.286;2023-02-11T11:35:07;101707.13;;;7.28;100.00
64827;BME280;51265;53.972;12.286;2023-02-11T11:37:44;101711.72;;;7.27;100.00
64827;BME280;51265;53.972;12.286;2023-02-11T11:42:41;101723.38;;;7.01;100.00
64827;BME280;51265;53.972;12.286;2023-02-11T11:47:47;101742.19;;;6.80;100.00
64827;BME280;51265;53.972;12.286;2023-02-11T11:50:44;101742.19;;;6.80;100.00
64827;BME280;51265;53.972;12.286;2023-02-11T11:53:14;101754.38;;;6.89;100.00
64827;BME280;51265;53.972;12.286;2023-02-11T11:55:51;101758.03;;;6.78;100.00
64827;BME280;51265;53.972;12.286;2023-02-11T11:58:22;101757.38;;;6.88;100.00
64827;BME280;51265;53.972;12.286;2023-02-11T12:01:21;101767.38;;;6.94;100.00
64827;BME280;51265;53.972;12.286;2023-02-11T12:04:15;101765.69;;;6.93;100.00
64827;BME280;51265;53.972;12.286;2023-02-11T12:09:54;101767.69;;;7.31;100.00
64827;BME280;51265;53.972;12.286;2023-02-11T12:15:33;101768.38;;;7.38;100.00
64827;BME280;51265;53.972;12.286;2023-02-11T12:18:29;101756.25;;;7.34;100.00
64827;BME280;51265;53.972;12.286;2023-02-11T12:26:22;101780.69;;;7.53;100.00
64827;BME280;51265;53.972;12.286;2023-02-11T12:32:41;101773.19;;;7.48;100.00
64827;BME280;51265;53.972;12.286;2023-02-11T12:51:33;101764.66;;;7.44;100.00
64827;BME280;51265;53.972;12.286;2023-02-11T12:59:07;101780.81;;;7.63;100.00
64827;BME280;51265;53.972;12.286;2023-02-11T13:01:41;101773.63;;;7.57;100.00
64827;BME280;51265;53.972;12.286;2023-02-11T13:04:16;101771.44;;;7.59;100.00
64827;BME280;51265;53.972;12.286;2023-02-11T13:06:54;101772.19;;;7.71;100.00
64827;BME280;51265;53.972;12.286;2023-02-11T13:09:25;101789.63;;;7.82;100.00
64827;BME280;51265;53.972;12.286;2023-02-11T13:11:56;101768.63;;;7.92;100.00
64827;BME280;51265;53.972;12.286;2023-02-11T13:14:33;101781.53;;;8.14;100.00
64827;BME280;51265;53.972;12.286;2023-02-11T13:17:17;101770.28;;;7.93;100.00
64827;BME280;51265;53.972;12.286;2023-02-11T13:26:53;101777.22;;;7.79;100.00
64827;BME280;51265;53.972;12.286;2023-02-11T13:29:30;101763.22;;;7.97;100.00
64827;BME280;51265;53.972;12.286;2023-02-11T13:32:13;101782.22;;;7.82;100.00
64827;BME280;51265;53.972;12.286;2023-02-11T13:37:30;101752.53;;;7.79;100.00
64827;BME280;51265;53.972;12.286;2023-02-11T13:42:47;101794.03;;;8.05;100.00
64827;BME280;51265;53.972;12.286;2023-02-11T13:47:59;101776.22;;;7.85;100.00
64827;BME280;51265;53.972;12.286;2023-02-11T13:50:28;101790.25;;;7.89;100.00
64827;BME280;51265;53.972;12.286;2023-02-11T13:52:59;101808.16;;;8.13;100.00
64827;BME280;51265;53.972;12.286;2023-02-11T13:55:26;101792.75;;;7.90;100.00
64827;BME280;51265;53.972;12.286;2023-02-11T14:14:28;101816.28;;;7.86;100.00
64827;BME280;51265;53.972;12.286;2023-02-11T14:19:40;101814.22;;;7.77;100.00
64827;BME280;51265;53.972;12.286;2023-02-11T14:22:21;101816.72;;;7.78;100.00
64827;BME280;51265;53.972;12.286;2023-02-11T14:28:02;101821.53;;;7.71;100.00
64827;BME280;51265;53.972;12.286;2023-02-11T14:30:50;101816.63;;;7.73;100.00
64827;BME280;51265;53.972;12.286;2023-02-11T14:36:17;101832.00;;;7.74;100.00
64827;BME280;51265;53.972;12.286;2023-02-11T14:39:46;101823.25;;;7.77;100.00
64827;BME280;51265;53.972;12.286;2023-02-11T14:41:49;101838.00;;;7.71;100.00
64827;BME280;51265;53.972;12.286;2023-02-11T14:44:24;101854.38;;;7.66;100.00
64827;BME280;51265;53.972;12.286;2023-02-11T14:46:53;101854.44;;;7.71;100.00
64827;BME280;51265;53.972;12.286;2023-02-11T14:49:25;101846.97;;;7.66;100.00
64827;BME280;51265;53.972;12.286;2023-02-11T14:54:50;101854.94;;;7.51;100.00
64827;BME280;51265;53.972;12.286;2023-02-11T14:57:19;101851.75;;;7.42;100.00
64827;BME280;51265;53.972;12.286;2023-02-11T15:02:30;101853.41;;;7.43;100.00
64827;BME280;51265;53.972;12.286;2023-02-11T15:07:48;101859.91;;;7.37;100.00
64827;BME280;51265;53.972;12.286;2023-02-11T15:12:52;101863.63;;;7.31;100.00
64827;BME280;51265;53.972;12.286;2023-02-11T15:15:20;101872.44;;;7.33;100.00
64827;BME280;51265;53.972;12.286;2023-02-11T15:17:47;101876.34;;;7.37;100.00
64827;BME280;51265;53.972;12.286;2023-02-11T15:20:23;101873.34;;;7.39;100.00
64827;BME280;51265;53.972;12.286;2023-02-11T15:22:55;101888.75;;;7.40;100.00
64827;BME280;51265;53.972;12.286;2023-02-11T15:25:22;101889.97;;;7.32;100.00
64827;BME280;51265;53.972;12.286;2023-02-11T15:27:51;101889.84;;;7.27;100.00
64827;BME280;51265;53.972;12.286;2023-02-11T15:32:49;101889.59;;;7.12;100.00
64827;BME280;51265;53.972;12.286;2023-02-11T15:35:17;101904.84;;;7.08;100.00
64827;BME280;51265;53.972;12.286;2023-02-11T15:37:44;101895.38;;;6.98;100.00
64827;BME280;51265;53.972;12.286;2023-02-11T15:40:18;101907.38;;;6.97;100.00